createdAt,value
2022-08-09T00:00:21.025Z,98410.72
2022-08-09T00:02:49.398Z,98409.09
2022-08-09T00:06:19.203Z,98414.50
2022-08-09T00:08:10.049Z,98410.59
2022-08-09T00:10:38.547Z,98405.88
2022-08-09T00:13:12.864Z,98405.88
2022-08-09T00:15:59.197Z,98407.75
2022-08-09T00:18:30.171Z,98408.75
2022-08-09T00:20:59.298Z,98407.88
2022-08-09T00:23:55.409Z,98421.19
2022-08-09T00:26:14.780Z,98417.25
2022-08-09T00:28:52.322Z,98410.75
2022-08-09T00:31:59.893Z,98401.16
2022-08-09T00:34:10.952Z,98397.50
2022-08-09T00:36:40.120Z,98390.53
2022-08-09T00:39:16.841Z,98396.66
2022-08-09T00:44:13.140Z,98396.09
2022-08-09T00:44:46.867Z,98392.28
2022-08-09T00:47:16.415Z,98396.09
2022-08-09T00:49:54.491Z,98395.13
2022-08-09T00:52:28.154Z,98396.31
2022-08-09T00:54:58.625Z,98397.41
2022-08-09T00:57:34.424Z,98402.72
2022-08-09T01:00:05.316Z,98409.72
2022-08-09T01:02:51.089Z,98422.00
2022-08-09T01:05:51.041Z,98418.91
2022-08-09T01:08:27.013Z,98417.47
2022-08-09T01:10:59.734Z,98411.50
2022-08-09T01:13:53.173Z,98417.63
2022-08-09T01:16:21.967Z,98415.38
2022-08-09T01:19:01.648Z,98422.63
2022-08-09T01:21:44.869Z,98420.91
2022-08-09T01:24:21.929Z,98420.09
2022-08-09T01:26:55.826Z,98414.41
2022-08-09T01:29:29.256Z,98409.84
2022-08-09T01:32:30.928Z,98411.69
2022-08-09T01:34:57.890Z,98412.09
2022-08-09T01:38:05.871Z,98413.41
2022-08-09T01:40:23.177Z,98411.84
2022-08-09T01:42:57.763Z,98412.69
2022-08-09T01:45:25.639Z,98411.56
2022-08-09T01:47:53.440Z,98412.72
2022-08-09T01:50:26.665Z,98417.84
2022-08-09T01:53:19.563Z,98415.41
2022-08-09T01:55:48.136Z,98410.44
2022-08-09T01:58:17.468Z,98412.75
2022-08-09T02:00:46.381Z,98419.88
2022-08-09T02:03:18.162Z,98406.22
2022-08-09T02:06:03.950Z,98409.19
2022-08-09T02:08:40.715Z,98414.31
2022-08-09T02:11:21.565Z,98414.72
2022-08-09T02:13:55.371Z,98413.19
2022-08-09T02:16:58.973Z,98417.44
2022-08-09T02:19:24.731Z,98414.03
2022-08-09T02:22:11.402Z,98420.28
2022-08-09T02:24:39.432Z,98425.88
2022-08-09T02:27:09.514Z,98423.03
2022-08-09T02:29:43.522Z,98423.44
2022-08-09T02:32:12.121Z,98427.28
2022-08-09T02:34:55.478Z,98421.59
2022-08-09T02:37:24.666Z,98419.88
2022-08-09T02:40:03.310Z,98422.00
2022-08-09T02:42:32.934Z,98416.19
2022-08-09T02:45:06.684Z,98422.72
2022-08-09T02:47:57.654Z,98416.47
2022-08-09T02:50:24.435Z,98411.22
2022-08-09T02:52:56.095Z,98413.22
2022-08-09T02:55:24.420Z,98412.63
2022-08-09T02:58:35.388Z,98411.78
2022-08-09T03:01:04.261Z,98409.22
2022-08-09T03:04:12.681Z,98408.69
2022-08-09T03:06:21.924Z,98404.97
2022-08-09T03:08:49.759Z,98415.06
2022-08-09T03:12:06.514Z,98414.34
2022-08-09T03:14:09.934Z,98411.94
2022-08-09T03:16:41.986Z,98414.47
2022-08-09T03:19:14.601Z,98412.50
2022-08-09T03:22:03.344Z,98413.63
2022-08-09T03:24:42.498Z,98422.03
2022-08-09T03:27:21.557Z,98416.63
2022-08-09T03:29:57.603Z,98411.78
2022-08-09T03:32:31.116Z,98415.63
2022-08-09T03:34:59.458Z,98422.56
2022-08-09T03:37:55.774Z,98421.56
2022-08-09T03:40:17.960Z,98425.94
2022-08-09T03:42:46.588Z,98426.66
2022-08-09T03:45:15.573Z,98425.44
2022-08-09T03:47:46.788Z,98428.78
2022-08-09T03:50:18.840Z,98429.63
2022-08-09T03:52:55.941Z,98428.94
2022-08-09T03:55:25.713Z,98427.91
2022-08-09T03:58:03.341Z,98431.78
2022-08-09T04:00:42.265Z,98436.03
2022-08-09T04:03:11.770Z,98439.03
2022-08-09T04:05:47.563Z,98430.63
2022-08-09T04:08:15.715Z,98433.19
2022-08-09T04:10:44.725Z,98431.66
2022-08-09T04:13:18.841Z,98431.06
2022-08-09T04:16:19.313Z,98437.19
2022-08-09T04:18:36.180Z,98438.31
2022-08-09T04:21:04.062Z,98437.47
2022-08-09T04:23:31.862Z,98443.13
2022-08-09T04:26:01.252Z,98439.31
2022-08-09T04:28:33.042Z,98445.41
2022-08-09T04:31:05.686Z,98438.16
2022-08-09T04:33:52.865Z,98442.00
2022-08-09T04:36:25.301Z,98447.69
2022-08-09T04:38:53.599Z,98448.59
2022-08-09T04:41:23.830Z,98450.72
2022-08-09T04:44:05.168Z,98438.78
2022-08-09T04:46:37.573Z,98447.59
2022-08-09T04:49:40.460Z,98452.59
2022-08-09T04:52:18.622Z,98452.88
2022-08-09T04:54:54.894Z,98449.31
2022-08-09T04:57:24.005Z,98454.28
2022-08-09T04:59:54.013Z,98454.16
2022-08-09T05:02:21.874Z,98463.13
2022-08-09T05:04:55.194Z,98453.44
2022-08-09T05:07:23.601Z,98459.28
2022-08-09T05:09:52.182Z,98450.72
2022-08-09T05:12:22.592Z,98447.31
2022-08-09T05:14:50.517Z,98457.81
2022-08-09T05:18:37.819Z,98450.56
2022-08-09T05:20:09.979Z,98456.09
2022-08-09T05:23:51.121Z,98460.06
2022-08-09T05:25:28.263Z,98458.06
2022-08-09T05:28:00.243Z,98465.78
2022-08-09T05:30:29.984Z,98459.06
2022-08-09T05:32:59.366Z,98452.66
2022-08-09T05:35:28.846Z,98456.94
2022-08-09T05:37:59.866Z,98452.22
2022-08-09T05:40:29.171Z,98459.88
2022-08-09T05:42:57.117Z,98460.84
2022-08-09T05:45:25.121Z,98455.13
2022-08-09T05:47:56.850Z,98453.81
2022-08-09T05:50:51.369Z,98452.63
2022-08-09T05:53:31.785Z,98451.78
2022-08-09T05:56:01.637Z,98458.00
2022-08-09T05:58:29.830Z,98458.97
2022-08-09T06:00:58.339Z,98460.81
2022-08-09T06:03:34.725Z,98459.63
2022-08-09T06:06:13.926Z,98455.13
2022-08-09T06:08:42.315Z,98462.38
2022-08-09T06:11:17.539Z,98455.72
2022-08-09T06:13:45.838Z,98460.84
2022-08-09T06:16:16.335Z,98462.19
2022-08-09T06:18:44.951Z,98463.25
2022-08-09T06:21:16.285Z,98461.78
2022-08-09T06:23:55.076Z,98458.78
2022-08-09T06:26:28.496Z,98458.75
2022-08-09T06:28:59.668Z,98458.97
2022-08-09T06:31:31.206Z,98473.69
2022-08-09T06:34:07.441Z,98475.16
2022-08-09T06:36:37.334Z,98471.69
2022-08-09T06:39:12.811Z,98473.94
2022-08-09T06:42:09.083Z,98473.00
2022-08-09T06:44:28.877Z,98464.19
2022-08-09T06:46:56.651Z,98469.97
2022-08-09T06:49:44.894Z,98469.75
2022-08-09T06:52:15.680Z,98469.56
2022-08-09T06:54:44.156Z,98467.72
2022-08-09T06:57:13.449Z,98468.16
2022-08-09T07:00:51.087Z,98470.56
2022-08-09T07:02:31.905Z,98466.06
2022-08-09T07:05:00.333Z,98468.63
2022-08-09T07:08:00.581Z,98479.38
2022-08-09T07:10:29.317Z,98479.56
2022-08-09T07:12:59.046Z,98478.22
2022-08-09T07:16:35.253Z,98483.34
2022-08-09T07:18:15.157Z,98486.41
2022-08-09T07:20:43.356Z,98488.81
2022-08-09T07:23:18.974Z,98488.81
2022-08-09T07:25:47.120Z,98492.59
2022-08-09T07:28:19.216Z,98483.41
2022-08-09T07:30:47.332Z,98485.94
2022-08-09T07:33:16.804Z,98478.47
2022-08-09T07:35:54.275Z,98478.28
2022-08-09T07:38:24.050Z,98473.50
2022-08-09T07:41:11.028Z,98482.66
2022-08-09T07:43:49.602Z,98471.91
2022-08-09T07:46:19.262Z,98479.06
2022-08-09T07:48:52.830Z,98476.50
2022-08-09T07:52:05.713Z,98479.56
2022-08-09T07:54:27.581Z,98474.97
2022-08-09T07:56:56.255Z,98468.94
2022-08-09T07:59:45.763Z,98477.41
2022-08-09T08:02:19.161Z,98473.94
2022-08-09T08:04:49.009Z,98473.94
2022-08-09T08:08:43.327Z,98469.56
2022-08-09T08:10:10.511Z,98470.72
2022-08-09T08:12:43.431Z,98475.53
2022-08-09T08:15:13.895Z,98478.25
2022-08-09T08:17:55.208Z,98479.19
2022-08-09T08:20:28.794Z,98480.16
2022-08-09T08:23:01.683Z,98478.06
2022-08-09T08:25:43.816Z,98487.75
2022-08-09T08:28:14.341Z,98484.53
2022-08-09T08:30:42.997Z,98480.88
2022-08-09T08:33:11.782Z,98478.66
2022-08-09T08:35:59.686Z,98487.69
2022-08-09T08:38:28.265Z,98486.38
2022-08-09T08:40:57.829Z,98478.44
2022-08-09T08:43:26.504Z,98481.50
2022-08-09T08:46:32.564Z,98480.88
2022-08-09T08:48:51.823Z,98476.31
2022-08-09T08:51:22.846Z,98480.75
2022-08-09T08:54:03.236Z,98482.63
2022-08-09T08:56:37.613Z,98479.72
2022-08-09T08:59:19.212Z,98490.84
2022-08-09T09:01:53.329Z,98493.06
2022-08-09T09:04:31.112Z,98491.78
2022-08-09T09:07:03.942Z,98484.44
2022-08-09T09:09:41.108Z,98496.72
2022-08-09T09:12:29.034Z,98501.31
2022-08-09T09:14:58.692Z,98502.91
2022-08-09T09:17:48.722Z,98498.41
2022-08-09T09:20:15.789Z,98506.50
2022-08-09T09:23:02.380Z,98507.47
2022-08-09T09:26:05.013Z,98512.09
2022-08-09T09:28:53.231Z,98506.91
2022-08-09T09:31:17.472Z,98510.31
2022-08-09T09:34:14.543Z,98512.47
2022-08-09T09:36:52.925Z,98514.03
2022-08-09T09:39:42.632Z,98508.88
2022-08-09T09:42:12.935Z,98510.28
2022-08-09T09:44:42.120Z,98516.78
2022-08-09T09:47:11.482Z,98509.34
2022-08-09T09:50:07.786Z,98502.97
2022-08-09T09:52:52.305Z,98507.28
2022-08-09T09:55:28.568Z,98515.28
2022-08-09T09:58:16.301Z,98504.09
2022-08-09T10:00:54.373Z,98504.47
2022-08-09T10:03:40.385Z,98513.59
2022-08-09T10:06:12.459Z,98506.72
2022-08-09T10:08:54.449Z,98512.78
2022-08-09T10:11:53.755Z,98519.06
2022-08-09T10:14:30.677Z,98504.41
2022-08-09T10:17:23.871Z,98514.41
2022-08-09T10:19:58.936Z,98517.25
2022-08-09T10:22:33.399Z,98515.88
2022-08-09T10:25:03.379Z,98516.09
2022-08-09T10:27:45.354Z,98512.59
2022-08-09T10:34:04.401Z,98516.41
2022-08-09T10:36:03.136Z,98523.44
2022-08-09T10:38:33.934Z,98523.63
2022-08-09T10:41:20.610Z,98510.81
2022-08-09T10:43:58.759Z,98518.84
2022-08-09T10:46:54.154Z,98522.47
2022-08-09T10:49:49.926Z,98509.13
2022-08-09T10:52:20.530Z,98506.84
2022-08-09T10:54:53.303Z,98510.00
2022-08-09T10:57:23.344Z,98510.53
2022-08-09T10:59:57.766Z,98521.31
2022-08-09T11:03:18.063Z,98514.34
2022-08-09T11:05:30.541Z,98515.13
2022-08-09T11:08:06.726Z,98515.22
2022-08-09T11:10:54.886Z,98522.25
2022-08-09T11:13:50.553Z,98522.47
2022-08-09T11:16:37.807Z,98516.78
2022-08-09T11:19:09.605Z,98521.22
2022-08-09T11:21:57.551Z,98505.16
2022-08-09T11:25:03.341Z,98506.19
2022-08-09T11:28:04.268Z,98513.91
2022-08-09T11:30:34.435Z,98506.41
2022-08-09T11:33:04.539Z,98505.00
2022-08-09T11:35:50.092Z,98506.91
2022-08-09T11:38:32.701Z,98497.03
2022-08-09T11:41:23.442Z,98497.88
2022-08-09T11:43:53.288Z,98486.97
2022-08-09T11:46:33.379Z,98495.19
2022-08-09T11:49:05.249Z,98486.34
2022-08-09T11:53:15.127Z,98478.44
2022-08-09T11:55:21.669Z,98479.09
2022-08-09T11:58:48.221Z,98486.44
2022-08-09T12:02:01.344Z,98494.41
2022-08-09T12:04:07.896Z,98480.50
2022-08-09T12:06:55.500Z,98488.72
2022-08-09T12:09:26.552Z,98482.84
2022-08-09T12:12:03.189Z,98482.81
2022-08-09T12:14:40.527Z,98484.31
2022-08-09T12:17:33.857Z,98485.13
2022-08-09T12:20:16.593Z,98478.78
2022-08-09T12:22:50.260Z,98473.94
2022-08-09T12:25:31.888Z,98467.84
2022-08-09T12:28:59.123Z,98466.91
2022-08-09T12:30:59.287Z,98453.34
2022-08-09T12:33:51.478Z,98469.25
2022-08-09T12:36:27.392Z,98468.81
2022-08-09T12:38:59.371Z,98465.81
2022-08-09T12:41:28.553Z,98463.75
2022-08-09T12:44:04.383Z,98461.63
2022-08-09T12:46:36.117Z,98452.53
2022-08-09T12:49:04.280Z,98449.16
2022-08-09T12:51:59.964Z,98437.34
2022-08-09T12:54:19.968Z,98446.59
2022-08-09T12:56:51.203Z,98445.38
2022-08-09T12:59:24.038Z,98448.75
2022-08-09T13:02:02.572Z,98438.41
2022-08-09T13:04:38.156Z,98442.00
2022-08-09T13:07:13.845Z,98446.66
2022-08-09T13:09:41.735Z,98443.00
2022-08-09T13:12:13.218Z,98425.25
2022-08-09T13:14:53.790Z,98436.03
2022-08-09T13:18:03.319Z,98432.44
2022-08-09T13:20:20.405Z,98431.81
2022-08-09T13:23:04.871Z,98439.84
2022-08-09T13:25:42.488Z,98430.75
2022-08-09T13:28:19.059Z,98424.38
2022-08-09T13:32:17.771Z,98425.78
2022-08-09T13:33:54.711Z,98419.25
2022-08-09T13:36:24.270Z,98415.66
2022-08-09T13:41:17.110Z,98418.47
2022-08-09T13:42:01.746Z,98410.56
2022-08-09T13:44:30.019Z,98420.78
2022-08-09T13:47:27.187Z,98405.31
2022-08-09T13:50:00.685Z,98409.06
2022-08-09T13:52:29.396Z,98406.75
2022-08-09T13:55:00.156Z,98401.00
2022-08-09T13:57:36.829Z,98406.09
2022-08-09T14:00:09.893Z,98396.97
2022-08-09T14:02:42.696Z,98400.78
2022-08-09T14:05:56.526Z,98394.03
2022-08-09T14:08:17.665Z,98403.53
2022-08-09T14:10:50.681Z,98402.09
2022-08-09T14:13:27.593Z,98404.75
2022-08-09T14:16:07.132Z,98411.53
2022-08-09T14:18:45.217Z,98397.38
2022-08-09T14:21:17.678Z,98398.78
2022-08-09T14:23:54.804Z,98399.56
2022-08-09T14:26:30.528Z,98396.97
2022-08-09T14:29:00.337Z,98404.59
2022-08-09T14:31:50.209Z,98403.13
2022-08-09T14:34:31.017Z,98399.53
2022-08-09T14:37:02.717Z,98394.69
2022-08-09T14:39:40.239Z,98389.78
2022-08-09T14:42:31.647Z,98392.53
2022-08-09T14:46:40.083Z,98386.03
2022-08-09T14:47:58.102Z,98386.97
2022-08-09T14:50:29.292Z,98390.97
2022-08-09T14:52:58.276Z,98384.56
2022-08-09T14:55:31.910Z,98381.63
2022-08-09T14:58:04.747Z,98387.03
2022-08-09T15:00:33.722Z,98383.34
2022-08-09T15:03:03.813Z,98385.63
2022-08-09T15:05:33.362Z,98386.13
2022-08-09T15:08:03.324Z,98379.75
2022-08-09T15:10:33.448Z,98389.84
2022-08-09T15:13:02.932Z,98383.28
2022-08-09T15:15:34.274Z,98384.91
2022-08-09T15:18:08.118Z,98379.50
2022-08-09T15:21:57.108Z,98401.09
2022-08-09T15:24:01.983Z,98385.44
2022-08-09T15:26:19.255Z,98382.28
2022-08-09T15:29:04.407Z,98378.88
2022-08-09T15:31:42.004Z,98375.16
2022-08-09T15:34:32.236Z,98381.75
2022-08-09T15:37:00.997Z,98379.94
2022-08-09T15:39:34.831Z,98381.50
2022-08-09T15:42:11.655Z,98384.06
2022-08-09T15:44:39.517Z,98384.28
2022-08-09T15:47:14.223Z,98376.13
2022-08-09T15:50:00.646Z,98381.03
2022-08-09T15:52:32.072Z,98384.03
2022-08-09T15:54:59.989Z,98380.94
2022-08-09T15:57:35.697Z,98366.66
2022-08-09T16:00:24.499Z,98372.25
2022-08-09T16:02:54.901Z,98365.09
2022-08-09T16:05:26.498Z,98352.16
2022-08-09T16:08:31.285Z,98363.78
2022-08-09T16:11:01.670Z,98364.16
2022-08-09T16:14:03.445Z,98356.13
2022-08-09T16:16:18.707Z,98353.03
2022-08-09T16:18:46.847Z,98361.94
2022-08-09T16:21:16.957Z,98360.75
2022-08-09T16:23:50.868Z,98366.53
2022-08-09T16:26:35.602Z,98362.19
2022-08-09T16:29:10.704Z,98362.50
2022-08-09T16:32:18.754Z,98356.75
2022-08-09T16:34:28.815Z,98354.88
2022-08-09T16:36:57.012Z,98365.16
2022-08-09T16:39:26.485Z,98356.31
2022-08-09T16:42:03.885Z,98363.06
2022-08-09T16:44:32.703Z,98354.63
2022-08-09T16:47:04.170Z,98365.00
2022-08-09T16:50:31.722Z,98360.59
2022-08-09T16:52:37.097Z,98363.13
2022-08-09T16:55:12.057Z,98351.28
2022-08-09T16:58:08.417Z,98356.78
2022-08-09T17:00:31.600Z,98354.25
2022-08-09T17:02:59.472Z,98359.06
2022-08-09T17:06:02.741Z,98355.75
2022-08-09T17:08:45.475Z,98368.16
2022-08-09T17:11:04.236Z,98359.69
2022-08-09T17:13:34.125Z,98361.59
2022-08-09T17:16:02.702Z,98365.41
2022-08-09T17:18:30.627Z,98366.44
2022-08-09T17:20:58.780Z,98369.56
2022-08-09T17:24:21.270Z,98362.00
2022-08-09T17:26:17.691Z,98367.91
2022-08-09T17:29:00.604Z,98370.03
2022-08-09T17:31:39.065Z,98366.22
2022-08-09T17:34:59.761Z,98373.56
2022-08-09T17:37:00.134Z,98374.63
2022-08-09T17:39:52.065Z,98375.47
2022-08-09T17:42:42.208Z,98364.28
2022-08-09T17:45:23.620Z,98369.09
2022-08-09T17:48:02.887Z,98370.09
2022-08-09T17:50:37.769Z,98373.47
2022-08-09T17:53:19.251Z,98373.81
2022-08-09T17:55:48.746Z,98375.91
2022-08-09T17:58:19.207Z,98371.47
2022-08-09T18:00:48.338Z,98379.88
2022-08-09T18:03:17.698Z,98375.63
2022-08-09T18:05:52.835Z,98372.47
2022-08-09T18:08:21.983Z,98377.69
2022-08-09T18:10:55.120Z,98380.38
2022-08-09T18:13:53.555Z,98386.09
2022-08-09T18:16:28.893Z,98382.47
2022-08-09T18:18:57.741Z,98383.50
2022-08-09T18:21:27.438Z,98389.88
2022-08-09T18:24:10.226Z,98384.56
2022-08-09T18:26:46.006Z,98388.16
2022-08-09T18:30:42.603Z,98391.00
2022-08-09T18:32:04.935Z,98396.88
2022-08-09T18:34:35.419Z,98396.81
2022-08-09T18:37:03.751Z,98397.47
2022-08-09T18:39:32.664Z,98395.91
2022-08-09T18:42:05.313Z,98399.56
2022-08-09T18:44:38.299Z,98406.00
2022-08-09T18:47:15.028Z,98402.41
2022-08-09T18:49:46.956Z,98407.63
2022-08-09T18:52:15.906Z,98405.03
2022-08-09T18:54:52.603Z,98414.97
2022-08-09T18:57:22.456Z,98416.38
2022-08-09T18:59:57.388Z,98422.94
2022-08-09T19:02:30.644Z,98416.72
2022-08-09T19:05:04.159Z,98416.19
2022-08-09T19:07:43.229Z,98422.41
2022-08-09T19:10:27.508Z,98427.50
2022-08-09T19:13:04.807Z,98430.44
2022-08-09T19:15:45.061Z,98429.03
2022-08-09T19:18:33.818Z,98421.84
2022-08-09T19:21:09.499Z,98437.31
2022-08-09T19:24:32.918Z,98432.03
2022-08-09T19:26:29.218Z,98433.94
2022-08-09T19:29:01.931Z,98439.28
2022-08-09T19:31:45.067Z,98438.44
2022-08-09T19:34:21.650Z,98440.97
2022-08-09T19:36:51.606Z,98439.66
2022-08-09T19:39:20.826Z,98442.09
2022-08-09T19:42:08.043Z,98443.50
2022-08-09T19:44:36.865Z,98445.59
2022-08-09T19:47:06.443Z,98452.78
2022-08-09T19:50:06.877Z,98452.50
2022-08-09T19:52:23.446Z,98447.38
2022-08-09T19:54:52.025Z,98444.56
2022-08-09T19:57:19.848Z,98452.38
2022-08-09T19:59:59.392Z,98452.25
2022-08-09T20:04:10.707Z,98455.06
2022-08-09T20:05:24.351Z,98454.88
2022-08-09T20:07:59.181Z,98455.19
2022-08-09T20:10:36.334Z,98456.88
2022-08-09T20:13:05.583Z,98455.53
2022-08-09T20:16:34.221Z,98468.41
2022-08-09T20:18:27.571Z,98463.69
2022-08-09T20:20:56.153Z,98457.94
2022-08-09T20:23:38.510Z,98458.09
2022-08-09T20:26:07.351Z,98458.78
2022-08-09T20:28:47.918Z,98453.00
2022-08-09T20:31:16.156Z,98458.66
2022-08-09T20:33:46.731Z,98457.84
2022-08-09T20:36:20.700Z,98458.34
2022-08-09T20:41:37.741Z,98450.03
2022-08-09T20:44:06.885Z,98444.25
2022-08-09T20:46:42.900Z,98450.25
2022-08-09T20:49:16.059Z,98452.84
2022-08-09T20:51:45.406Z,98453.88
2022-08-09T20:54:19.575Z,98454.25
2022-08-09T20:56:49.528Z,98457.31
2022-08-09T20:59:24.878Z,98456.63
2022-08-09T21:02:11.235Z,98461.78
2022-08-09T21:05:54.937Z,98456.69
2022-08-09T21:07:40.321Z,98453.44
2022-08-09T21:10:09.612Z,98453.94
2022-08-09T21:12:39.480Z,98445.81
2022-08-09T21:15:12.609Z,98449.91
2022-08-09T21:18:11.317Z,98451.09
2022-08-09T21:20:30.836Z,98447.88
2022-08-09T21:22:59.441Z,98440.88
2022-08-09T21:25:56.398Z,98441.41
2022-08-09T21:28:34.674Z,98438.88
2022-08-09T21:31:16.597Z,98441.28
2022-08-09T21:33:46.944Z,98447.38
2022-08-09T21:36:23.020Z,98443.81
2022-08-09T21:38:57.628Z,98438.72
2022-08-09T21:42:03.690Z,98435.50
2022-08-09T21:44:15.404Z,98437.91
2022-08-09T21:47:01.736Z,98444.19
2022-08-09T21:49:39.675Z,98432.97
2022-08-09T21:52:17.628Z,98431.94
2022-08-09T21:55:03.196Z,98442.16
2022-08-09T21:57:39.311Z,98444.41
2022-08-09T22:00:25.561Z,98441.16
2022-08-09T22:02:59.181Z,98438.97
2022-08-09T22:05:36.819Z,98446.63
2022-08-09T22:08:13.818Z,98443.94
2022-08-09T22:11:00.935Z,98448.53
2022-08-09T22:13:34.904Z,98453.13
2022-08-09T22:16:08.289Z,98454.84
2022-08-09T22:18:37.608Z,98455.84
2022-08-09T22:21:09.892Z,98460.63
2022-08-09T22:23:59.423Z,98455.81
2022-08-09T22:26:34.893Z,98458.59
2022-08-09T22:29:07.507Z,98461.78
2022-08-09T22:31:36.954Z,98460.06
2022-08-09T22:34:14.396Z,98458.19
2022-08-09T22:36:45.864Z,98462.78
2022-08-09T22:39:46.700Z,98463.97
2022-08-09T22:42:06.091Z,98466.19
2022-08-09T22:45:02.411Z,98462.25
2022-08-09T22:48:12.383Z,98461.78
2022-08-09T22:50:26.176Z,98464.66
2022-08-09T22:52:57.683Z,98462.41
2022-08-09T22:55:39.428Z,98464.50
2022-08-09T22:58:20.365Z,98472.47
2022-08-09T23:01:00.653Z,98469.72
2022-08-09T23:04:04.517Z,98475.50
2022-08-09T23:06:29.859Z,98478.22
2022-08-09T23:09:01.962Z,98470.56
2022-08-09T23:11:31.150Z,98479.09
2022-08-09T23:13:59.641Z,98477.69
2022-08-09T23:16:27.402Z,98477.22
2022-08-09T23:18:55.170Z,98473.78
2022-08-09T23:21:24.532Z,98473.28
2022-08-09T23:23:58.873Z,98471.78
2022-08-09T23:26:36.075Z,98470.56
2022-08-09T23:29:04.072Z,98470.22
2022-08-09T23:31:31.890Z,98470.72
2022-08-09T23:33:59.680Z,98465.28
2022-08-09T23:36:27.823Z,98465.25
2022-08-09T23:38:55.647Z,98469.84
2022-08-09T23:41:27.941Z,98462.69
2022-08-09T23:43:59.245Z,98462.00
2022-08-09T23:46:27.194Z,98458.78
2022-08-09T23:48:54.986Z,98453.88
2022-08-09T23:51:22.866Z,98458.25
2022-08-09T23:53:52.482Z,98456.22
2022-08-09T23:56:39.678Z,98457.75
2022-08-09T23:59:12.234Z,98455.34
